Tensed, Idaho
Current Conditions -  °F | °C
As of 3:53 AM on Sunday 23 Nov 2014 (Local Time) from KPUW Reporting Station
Clear Clear  
Wind Chill: 27°   Ceiling: Unl
Heat Index: 36°   Visibility: 10mi
Dew Point: 31°   Wind: 14mph
Humidity: 82%   Direction: 250°WSW
Pressure: 30.14"   Gusts: 22mph
Location:  47.16°N, 116.92°W
Report Text: KPUW 231153Z AUTO 25012G19KT 10SM CLR 02/M01 A3014 RMK AO2 SLP222 T00221006 10022 20017 51019
Loading
Personal Weather Stations






























Interactive Weather Map New forecast layout! Learn more

10-Day Weather Forecast

Advertisements
Track Severe Weather on mobile